createdAt,value
2023-02-15T00:01:10.487Z,13.50
2023-02-15T00:04:46.060Z,13.80
2023-02-15T00:08:07.533Z,16.10
2023-02-15T00:11:41.579Z,14.73
2023-02-15T00:15:03.231Z,14.43
2023-02-15T00:18:26.301Z,15.20
2023-02-15T00:21:48.854Z,15.50
2023-02-15T00:25:12.625Z,14.53
2023-02-15T00:28:34.373Z,15.43
2023-02-15T00:31:56.331Z,15.33
2023-02-15T00:35:20.645Z,14.93
2023-02-15T00:38:42.407Z,16.27
2023-02-15T00:42:03.655Z,16.53
2023-02-15T00:45:25.193Z,15.87
2023-02-15T00:48:47.049Z,16.37
2023-02-15T00:52:09.747Z,15.57
2023-02-15T00:55:31.436Z,14.93
2023-02-15T00:58:53.228Z,15.97
2023-02-15T01:02:14.939Z,15.17
2023-02-15T01:05:36.582Z,15.20
2023-02-15T01:09:00.639Z,15.60
2023-02-15T01:12:22.323Z,17.50
2023-02-15T01:15:44.652Z,14.80
2023-02-15T01:19:07.086Z,13.93
2023-02-15T01:22:28.593Z,15.27
2023-02-15T01:25:52.172Z,15.33
2023-02-15T01:29:14.093Z,15.70
2023-02-15T01:32:35.948Z,15.50
2023-02-15T01:36:01.489Z,16.23
2023-02-15T01:39:23.380Z,16.27
2023-02-15T01:42:52.831Z,17.17
2023-02-15T01:46:16.072Z,16.17
2023-02-15T01:49:37.556Z,15.90
2023-02-15T01:53:04.107Z,16.60
2023-02-15T01:56:29.904Z,15.87
2023-02-15T01:59:57.826Z,16.33
2023-02-15T02:03:22.738Z,17.57
2023-02-15T02:06:46.264Z,16.27
2023-02-15T02:10:11.506Z,16.63
2023-02-15T02:13:33.012Z,16.93
2023-02-15T02:17:02.360Z,15.77
2023-02-15T02:21:03.404Z,16.37
2023-02-15T02:24:49.811Z,15.13
2023-02-15T02:28:32.844Z,14.90
2023-02-15T02:32:15.146Z,14.77
2023-02-15T02:35:46.688Z,14.77
2023-02-15T02:39:16.135Z,15.87
2023-02-15T02:42:42.381Z,14.57
2023-02-15T02:46:12.170Z,13.47
2023-02-15T02:49:35.956Z,14.13
2023-02-15T02:53:00.935Z,14.30
2023-02-15T02:56:27.194Z,13.63
2023-02-15T02:59:51.852Z,15.47
2023-02-15T03:03:17.999Z,13.70
2023-02-15T03:06:44.606Z,14.80
2023-02-15T03:10:10.237Z,14.40
2023-02-15T03:13:32.606Z,15.23
2023-02-15T03:16:56.131Z,14.80
2023-02-15T03:20:22.449Z,14.73
2023-02-15T03:23:44.271Z,14.50
2023-02-15T03:27:12.445Z,14.83
2023-02-15T03:30:36.574Z,14.83
2023-02-15T03:34:02.115Z,14.67
2023-02-15T03:37:31.192Z,14.13
2023-02-15T03:41:13.442Z,13.97
2023-02-15T03:44:43.748Z,13.73
2023-02-15T03:48:09.321Z,14.23
2023-02-15T03:51:39.056Z,14.77
2023-02-15T03:55:01.098Z,15.53
2023-02-15T03:58:40.361Z,15.00
2023-02-15T04:02:17.712Z,14.97
2023-02-15T04:05:39.831Z,16.07
2023-02-15T04:09:18.628Z,15.83
2023-02-15T04:12:40.190Z,16.97
2023-02-15T04:16:08.514Z,15.97
2023-02-15T04:19:53.394Z,16.97
2023-02-15T04:23:32.013Z,17.37
2023-02-15T04:26:54.591Z,16.27
2023-02-15T04:30:19.328Z,17.23
2023-02-15T04:33:40.986Z,17.77
2023-02-15T04:37:04.067Z,17.53
2023-02-15T04:40:25.757Z,17.23
2023-02-15T04:43:47.562Z,17.90
2023-02-15T04:47:09.338Z,18.13
2023-02-15T04:50:31.222Z,17.80
2023-02-15T04:53:54.483Z,17.43
2023-02-15T04:57:16.279Z,17.30
2023-02-15T05:00:37.831Z,17.63
2023-02-15T05:03:59.649Z,17.17
2023-02-15T05:07:22.343Z,19.00
2023-02-15T05:10:45.278Z,18.13
2023-02-15T05:14:07.191Z,18.70
2023-02-15T05:17:28.859Z,18.93
2023-02-15T05:20:50.983Z,18.93
2023-02-15T05:24:26.683Z,18.10
2023-02-15T05:28:06.973Z,18.63
2023-02-15T05:31:28.618Z,18.40
2023-02-15T05:34:50.036Z,17.77
2023-02-15T05:38:11.883Z,17.90
2023-02-15T05:41:33.143Z,18.27
2023-02-15T05:44:56.393Z,18.23
2023-02-15T05:48:19.367Z,18.17
2023-02-15T05:51:40.944Z,19.13
2023-02-15T05:55:03.720Z,18.10
2023-02-15T05:58:25.420Z,18.40
2023-02-15T06:01:48.653Z,17.87
2023-02-15T06:05:10.459Z,18.13
2023-02-15T06:08:32.460Z,19.53
2023-02-15T06:11:53.895Z,18.23
2023-02-15T06:15:15.035Z,19.27
2023-02-15T06:18:37.636Z,19.13
2023-02-15T06:21:59.233Z,18.10
2023-02-15T06:25:21.989Z,18.10
2023-02-15T06:28:43.815Z,17.47
2023-02-15T06:32:05.802Z,18.43
2023-02-15T06:35:29.656Z,18.73
2023-02-15T06:38:51.271Z,19.60
2023-02-15T06:42:13.642Z,18.10
2023-02-15T06:45:36.190Z,17.57
2023-02-15T06:48:58.001Z,17.23
2023-02-15T06:52:21.275Z,18.67
2023-02-15T06:55:43.230Z,19.50
2023-02-15T06:59:05.118Z,18.10
2023-02-15T07:02:26.925Z,19.37
2023-02-15T07:05:49.801Z,18.57
2023-02-15T07:09:13.712Z,17.90
2023-02-15T07:12:45.530Z,19.03
2023-02-15T07:16:07.135Z,18.67
2023-02-15T07:19:28.955Z,18.40
2023-02-15T07:22:51.425Z,20.87
2023-02-15T07:26:14.947Z,18.83
2023-02-15T07:29:36.753Z,19.23
2023-02-15T07:33:15.748Z,20.53
2023-02-15T07:36:37.426Z,19.83
2023-02-15T07:39:59.155Z,20.80
2023-02-15T07:43:22.076Z,20.57
2023-02-15T07:46:44.010Z,22.43
2023-02-15T07:50:06.881Z,25.03
2023-02-15T07:53:29.328Z,21.40
2023-02-15T07:56:50.955Z,22.07
2023-02-15T08:00:17.723Z,23.80
2023-02-15T08:03:39.620Z,23.60
2023-02-15T08:07:01.462Z,29.47
2023-02-15T08:10:42.828Z,25.03
2023-02-15T08:14:06.361Z,23.50
2023-02-15T08:17:29.086Z,23.47
2023-02-15T08:20:52.160Z,24.03
2023-02-15T08:24:18.088Z,23.67
2023-02-15T08:27:39.776Z,24.57
2023-02-15T08:31:06.851Z,22.67
2023-02-15T08:34:31.391Z,24.13
2023-02-15T08:37:53.574Z,23.50
2023-02-15T08:41:17.479Z,24.03
2023-02-15T08:44:39.065Z,27.30
2023-02-15T08:48:00.900Z,27.83
2023-02-15T08:51:25.204Z,29.30
2023-02-15T08:54:46.874Z,29.33
2023-02-15T08:58:08.638Z,31.50
2023-02-15T09:01:32.062Z,32.23
2023-02-15T09:04:53.857Z,30.73
2023-02-15T09:08:17.350Z,28.80
2023-02-15T09:11:40.732Z,29.60
2023-02-15T09:15:02.466Z,29.67
2023-02-15T09:18:24.198Z,31.17
2023-02-15T09:21:46.046Z,31.00
2023-02-15T09:25:09.955Z,28.27
2023-02-15T09:28:33.436Z,26.33
2023-02-15T09:31:55.565Z,24.77
2023-02-15T09:35:16.841Z,24.73
2023-02-15T09:38:38.591Z,24.73
2023-02-15T09:42:34.991Z,25.77
2023-02-15T09:46:13.398Z,23.83
2023-02-15T09:49:47.659Z,24.20
2023-02-15T09:53:31.496Z,23.60
2023-02-15T09:56:58.180Z,24.30
2023-02-15T10:00:31.593Z,24.53
2023-02-15T10:04:14.573Z,25.50
2023-02-15T10:08:01.640Z,24.40
2023-02-15T10:11:41.523Z,25.63
2023-02-15T10:15:30.930Z,26.53
2023-02-15T10:19:10.537Z,26.27
2023-02-15T10:22:44.211Z,27.20
2023-02-15T10:26:15.062Z,27.70
2023-02-15T10:29:38.611Z,27.53
2023-02-15T10:33:03.020Z,25.53
2023-02-15T10:36:40.193Z,25.77
2023-02-15T10:40:11.198Z,28.57
2023-02-15T10:43:46.475Z,27.33
2023-02-15T10:47:32.102Z,26.03
2023-02-15T10:50:56.830Z,24.00
2023-02-15T10:54:30.519Z,24.57
2023-02-15T10:58:01.647Z,23.70
2023-02-15T11:01:29.788Z,22.77
2023-02-15T11:05:04.535Z,23.33
2023-02-15T11:08:27.488Z,22.67
2023-02-15T11:11:53.161Z,22.73
2023-02-15T11:15:21.761Z,23.53
2023-02-15T11:18:48.507Z,21.97
2023-02-15T11:22:12.327Z,21.33
2023-02-15T11:25:36.343Z,21.63
2023-02-15T11:29:03.717Z,21.97
2023-02-15T11:32:28.309Z,23.63
2023-02-15T11:35:52.975Z,22.47
2023-02-15T11:39:18.348Z,23.20
2023-02-15T11:42:40.548Z,22.10
2023-02-15T11:46:03.604Z,22.97
2023-02-15T11:49:29.561Z,23.13
2023-02-15T11:52:51.947Z,23.00
2023-02-15T11:56:17.271Z,23.60
2023-02-15T11:59:41.949Z,22.67
2023-02-15T12:03:11.837Z,22.57
2023-02-15T12:06:36.258Z,23.50
2023-02-15T12:10:05.321Z,22.70
2023-02-15T12:13:27.097Z,22.73
2023-02-15T12:16:51.300Z,22.93
2023-02-15T12:20:29.869Z,23.80
2023-02-15T12:23:54.407Z,22.70
2023-02-15T12:27:19.456Z,21.50
2023-02-15T12:30:44.928Z,21.60
2023-02-15T12:34:14.135Z,21.20
2023-02-15T12:37:37.281Z,20.67
2023-02-15T12:41:02.324Z,21.13
2023-02-15T12:44:27.022Z,20.90
2023-02-15T12:47:50.128Z,20.40
2023-02-15T12:51:17.307Z,25.87
2023-02-15T12:54:42.455Z,26.90
2023-02-15T12:58:18.128Z,25.63
2023-02-15T13:01:41.326Z,24.37
2023-02-15T13:05:17.353Z,25.20
2023-02-15T13:08:48.193Z,24.50
2023-02-15T13:12:20.863Z,23.97
2023-02-15T13:15:43.711Z,22.87
2023-02-15T13:19:09.357Z,22.77
2023-02-15T13:22:37.447Z,22.67
2023-02-15T13:26:04.283Z,22.33
2023-02-15T13:29:30.315Z,22.30
2023-02-15T13:32:54.787Z,22.27
2023-02-15T13:36:23.108Z,23.27
2023-02-15T13:39:51.521Z,29.10
2023-02-15T13:43:28.323Z,29.87
2023-02-15T13:47:08.721Z,29.70
2023-02-15T13:51:00.051Z,28.27
2023-02-15T13:54:55.303Z,28.87
2023-02-15T13:58:34.683Z,31.50
2023-02-15T14:02:00.306Z,29.73
2023-02-15T14:05:42.846Z,29.50
2023-02-15T14:09:16.760Z,28.83
2023-02-15T14:13:01.475Z,26.60
2023-02-15T14:16:33.838Z,28.80
2023-02-15T14:20:03.412Z,29.40
2023-02-15T14:23:37.221Z,29.40
2023-02-15T14:27:09.457Z,28.60
2023-02-15T14:30:35.583Z,28.50
2023-02-15T14:33:59.048Z,29.53
2023-02-15T14:37:31.309Z,28.90
2023-02-15T14:41:04.888Z,30.20
2023-02-15T14:44:38.697Z,30.03
2023-02-15T14:48:09.975Z,28.57
2023-02-15T14:52:03.232Z,29.23
2023-02-15T14:55:38.713Z,28.97
2023-02-15T14:59:17.300Z,29.97
2023-02-15T15:02:49.669Z,30.00
2023-02-15T15:06:27.947Z,31.30
2023-02-15T15:10:05.175Z,32.07
2023-02-15T15:13:54.818Z,32.17
2023-02-15T15:17:57.055Z,29.27
2023-02-15T15:21:51.865Z,30.70
2023-02-15T15:25:45.648Z,29.30
2023-02-15T15:29:09.325Z,28.83
2023-02-15T15:32:35.448Z,29.17
2023-02-15T15:36:14.080Z,28.77
2023-02-15T15:40:00.314Z,28.80
2023-02-15T15:43:55.651Z,28.30
2023-02-15T15:47:34.324Z,29.07
2023-02-15T15:50:59.851Z,29.83
2023-02-15T15:54:23.539Z,29.10
2023-02-15T15:57:49.768Z,29.60
2023-02-15T16:01:14.680Z,28.97
2023-02-15T16:04:37.717Z,28.27
2023-02-15T16:07:59.361Z,29.43
2023-02-15T16:11:24.962Z,27.07
2023-02-15T16:14:50.019Z,29.90
2023-02-15T16:18:17.251Z,27.20
2023-02-15T16:21:40.165Z,27.17
2023-02-15T16:25:24.229Z,26.40
2023-02-15T16:28:50.857Z,27.63
2023-02-15T16:32:21.297Z,25.80
2023-02-15T16:35:56.053Z,25.57
2023-02-15T16:39:22.621Z,26.27
2023-02-15T16:42:44.187Z,26.77
2023-02-15T16:46:08.439Z,26.97
2023-02-15T16:49:31.704Z,26.53
2023-02-15T16:52:54.129Z,27.50
2023-02-15T16:56:24.153Z,29.63
2023-02-15T16:59:49.954Z,27.17
2023-02-15T17:03:24.136Z,25.47
2023-02-15T17:07:00.607Z,25.67
2023-02-15T17:10:32.083Z,23.73
2023-02-15T17:14:16.294Z,25.47
2023-02-15T17:17:38.125Z,24.77
2023-02-15T17:21:02.518Z,24.83
2023-02-15T17:24:33.620Z,22.93
2023-02-15T17:27:57.455Z,23.43
2023-02-15T17:31:22.470Z,24.97
2023-02-15T17:34:52.023Z,23.57
2023-02-15T17:38:20.855Z,24.60
2023-02-15T17:41:43.599Z,24.07
2023-02-15T17:45:06.047Z,23.73
2023-02-15T17:48:34.162Z,24.80
2023-02-15T17:51:56.136Z,25.63
2023-02-15T17:55:39.247Z,23.10
2023-02-15T17:59:01.169Z,22.87
2023-02-15T18:02:40.139Z,21.63
2023-02-15T18:06:20.831Z,22.00
2023-02-15T18:09:59.901Z,21.90
2023-02-15T18:13:21.326Z,20.67
2023-02-15T18:16:45.873Z,20.07
2023-02-15T18:20:18.076Z,20.37
2023-02-15T18:23:42.244Z,21.90
2023-02-15T18:27:05.521Z,21.00
2023-02-15T18:30:27.892Z,22.37
2023-02-15T18:33:51.660Z,24.57
2023-02-15T18:37:17.310Z,21.60
2023-02-15T18:40:40.481Z,22.00
2023-02-15T18:44:02.297Z,20.33
2023-02-15T18:47:24.206Z,22.27
2023-02-15T18:50:46.342Z,27.03
2023-02-15T18:54:17.167Z,27.97
2023-02-15T18:57:41.704Z,28.20
2023-02-15T19:01:03.627Z,26.37
2023-02-15T19:04:25.963Z,26.57
2023-02-15T19:07:49.315Z,23.90
2023-02-15T19:11:15.914Z,21.77
2023-02-15T19:14:39.018Z,22.90
2023-02-15T19:18:00.719Z,23.80
2023-02-15T19:22:06.436Z,22.63
2023-02-15T19:25:31.123Z,23.10
2023-02-15T19:28:53.308Z,24.20
2023-02-15T19:32:16.476Z,21.73
2023-02-15T19:35:38.196Z,19.27
2023-02-15T19:38:59.951Z,18.80
2023-02-15T19:42:24.547Z,21.73
2023-02-15T19:45:46.755Z,25.40
2023-02-15T19:49:11.727Z,22.20
2023-02-15T19:52:33.419Z,20.90
2023-02-15T19:55:54.959Z,19.83
2023-02-15T19:59:23.911Z,19.60
2023-02-15T20:02:45.586Z,20.43
2023-02-15T20:06:14.745Z,23.67
2023-02-15T20:09:40.689Z,21.03
2023-02-15T20:13:03.375Z,20.73
2023-02-15T20:16:26.388Z,21.93
2023-02-15T20:19:48.086Z,21.13
2023-02-15T20:23:19.170Z,21.20
2023-02-15T20:26:40.632Z,21.50
2023-02-15T20:30:02.340Z,21.00
2023-02-15T20:33:24.569Z,22.47
2023-02-15T20:36:45.972Z,21.03
2023-02-15T20:40:15.332Z,20.83
2023-02-15T20:43:37.016Z,20.70
2023-02-15T20:47:01.473Z,19.57
2023-02-15T20:50:25.859Z,20.67
2023-02-15T20:53:47.817Z,20.47
2023-02-15T20:57:13.047Z,21.47
2023-02-15T21:00:34.825Z,20.77
2023-02-15T21:03:56.384Z,20.63
2023-02-15T21:07:20.081Z,19.90
2023-02-15T21:10:45.374Z,20.03
2023-02-15T21:14:16.544Z,21.20
2023-02-15T21:17:38.292Z,20.77
2023-02-15T21:21:01.679Z,21.87
2023-02-15T21:24:25.761Z,23.07
2023-02-15T21:27:47.305Z,25.70
2023-02-15T21:31:17.058Z,22.47
2023-02-15T21:34:39.894Z,23.60
2023-02-15T21:38:01.745Z,24.23
2023-02-15T21:41:42.963Z,28.90
2023-02-15T21:45:25.211Z,28.70
2023-02-15T21:48:48.104Z,29.10
2023-02-15T21:52:12.765Z,29.37
2023-02-15T21:55:34.671Z,26.57
2023-02-15T21:58:56.244Z,21.50
2023-02-15T22:02:29.354Z,20.37
2023-02-15T22:05:52.762Z,18.50
2023-02-15T22:09:17.659Z,19.77
2023-02-15T22:12:40.171Z,20.63
2023-02-15T22:16:03.045Z,20.23
2023-02-15T22:19:24.951Z,20.50
2023-02-15T22:22:48.165Z,20.70
2023-02-15T22:26:16.463Z,19.90
2023-02-15T22:29:38.497Z,18.90
2023-02-15T22:33:02.203Z,20.20
2023-02-15T22:36:25.639Z,20.37
2023-02-15T22:39:48.568Z,20.07
2023-02-15T22:43:22.572Z,19.33
2023-02-15T22:46:44.358Z,20.20
2023-02-15T22:50:16.901Z,20.40
2023-02-15T22:53:38.453Z,20.40
2023-02-15T22:57:01.770Z,20.37
2023-02-15T23:00:26.939Z,20.87
2023-02-15T23:03:48.426Z,19.30
2023-02-15T23:07:14.483Z,19.47
2023-02-15T23:10:36.214Z,19.67
2023-02-15T23:13:59.337Z,17.90
2023-02-15T23:17:20.649Z,19.50
2023-02-15T23:20:42.426Z,18.23
2023-02-15T23:24:21.140Z,18.47
2023-02-15T23:27:57.788Z,18.73
2023-02-15T23:31:22.884Z,17.63
2023-02-15T23:34:44.649Z,17.10
2023-02-15T23:38:18.132Z,17.30
2023-02-15T23:41:40.141Z,18.43
2023-02-15T23:45:03.332Z,18.43
2023-02-15T23:48:32.785Z,17.70
2023-02-15T23:51:56.040Z,19.53
2023-02-15T23:55:18.188Z,17.83
2023-02-15T23:58:42.048Z,18.83
